Time;durP1;ratioP1;P1;durP2;ratioP2;P2;SDS_P1;SDS_P2;PMS_P1;PMS_P2;Temp;Humidity;BMP_temperature;BMP_pressure;BME280_temperature;BME280_humidity;BME280_pressure;Samples;Min_cycle;Max_cycle;Signal;HPM_P1;HPM_P2
2021/11/21 00:01:57;;;;;;;12.45;4.22;;;9.70;99.90;;;;;;5033947;28;20487;-59
2021/11/21 00:04:23;;;;;;;11.77;4.60;;;9.70;99.90;;;;;;5033225;28;20036;-60
2021/11/21 00:06:48;;;;;;;11.57;4.68;;;9.70;99.90;;;;;;5039844;28;20098;-61
2021/11/21 00:09:14;;;;;;;14.95;4.50;;;9.60;99.90;;;;;;5034486;28;20034;-58
2021/11/21 00:11:40;;;;;;;5.75;3.92;;;9.60;99.90;;;;;;5038037;28;20025;-60
2021/11/21 00:14:07;;;;;;;8.93;4.18;;;9.50;99.90;;;;;;5041777;28;20017;-61
2021/11/21 00:16:33;;;;;;;9.00;4.10;;;9.50;99.90;;;;;;5038547;28;20113;-59
2021/11/21 00:18:59;;;;;;;10.82;4.70;;;9.50;99.90;;;;;;5037807;28;20430;-58
2021/11/21 00:21:25;;;;;;;9.68;4.35;;;9.60;99.90;;;;;;5039774;28;20083;-60
2021/11/21 00:23:51;;;;;;;10.48;4.50;;;9.50;99.90;;;;;;5039985;28;20117;-61
2021/11/21 00:26:17;;;;;;;10.27;4.55;;;9.50;99.90;;;;;;5039096;28;20439;-59
2021/11/21 00:28:43;;;;;;;8.40;4.10;;;9.50;99.90;;;;;;5037419;28;20146;-61
2021/11/21 00:31:09;;;;;;;11.65;4.80;;;9.50;99.90;;;;;;5049071;28;20096;-61
2021/11/21 00:33:35;;;;;;;13.30;4.57;;;9.50;99.90;;;;;;5032702;28;20427;-61
2021/11/21 00:36:01;;;;;;;8.07;4.47;;;9.40;99.90;;;;;;5042524;28;20099;-61
2021/11/21 00:38:27;;;;;;;8.52;3.92;;;9.50;99.90;;;;;;5032752;28;20080;-59
2021/11/21 00:40:52;;;;;;;9.48;4.47;;;9.50;99.90;;;;;;5041412;28;20117;-58
2021/11/21 00:43:22;;;;;;;9.07;4.50;;;9.40;99.90;;;;;;5044376;28;20042;-59
2021/11/21 00:45:48;;;;;;;12.90;4.30;;;9.40;99.90;;;;;;5033246;28;20059;-60
2021/11/21 00:48:20;;;;;;;6.70;4.03;;;9.30;99.90;;;;;;5044270;28;20415;-62
2021/11/21 00:50:46;;;;;;;10.68;4.70;;;9.40;99.90;;;;;;5050456;28;20434;-60
2021/11/21 00:53:13;;;;;;;12.55;4.55;;;9.50;99.90;;;;;;5047693;28;20142;-61
2021/11/21 00:55:40;;;;;;;8.40;4.22;;;9.40;99.90;;;;;;5036436;28;20036;-60
2021/11/21 00:58:10;;;;;;;12.48;4.50;;;9.40;99.90;;;;;;5032083;28;20030;-60
2021/11/21 01:00:38;;;;;;;11.30;4.95;;;9.40;99.90;;;;;;5033608;28;20025;-60
2021/11/21 01:03:06;;;;;;;9.77;4.13;;;9.40;99.90;;;;;;5034679;28;20040;-61
2021/11/21 01:05:32;;;;;;;9.57;4.22;;;9.40;99.90;;;;;;5032776;28;20033;-60
2021/11/21 01:07:57;;;;;;;11.00;4.05;;;9.40;99.90;;;;;;5033238;28;20029;-60
2021/11/21 01:10:23;;;;;;;12.57;4.00;;;9.40;99.90;;;;;;5032379;28;20028;-61
2021/11/21 01:12:53;;;;;;;9.25;4.10;;;9.50;99.90;;;;;;5032557;28;20447;-60
2021/11/21 01:15:20;;;;;;;8.95;3.70;;;9.50;99.90;;;;;;5036766;28;20021;-59
2021/11/21 01:17:47;;;;;;;12.05;4.07;;;9.50;99.90;;;;;;5037764;28;20041;-61
2021/11/21 01:20:13;;;;;;;9.02;3.78;;;9.60;99.90;;;;;;5034371;28;20036;-59
2021/11/21 01:22:39;;;;;;;11.75;3.85;;;9.60;99.90;;;;;;5031565;28;20074;-60
2021/11/21 01:25:07;;;;;;;7.43;3.50;;;9.50;99.90;;;;;;5033156;28;20037;-60
2021/11/21 01:27:33;;;;;;;8.68;3.33;;;9.50;99.90;;;;;;5046889;28;20116;-62
2021/11/21 01:29:58;;;;;;;10.30;3.30;;;9.50;99.90;;;;;;5032997;28;20100;-60
2021/11/21 01:32:25;;;;;;;8.38;3.03;;;9.50;99.90;;;;;;5038688;28;20364;-58
2021/11/21 01:34:52;;;;;;;12.27;3.15;;;9.50;99.90;;;;;;5031417;28;20391;-58
2021/11/21 01:37:18;;;;;;;9.80;3.10;;;9.40;99.90;;;;;;5032832;28;20034;-61
2021/11/21 01:39:44;;;;;;;11.60;2.75;;;9.40;99.90;;;;;;5031206;28;20033;-61
2021/11/21 01:42:10;;;;;;;10.18;2.40;;;9.30;99.90;;;;;;5034573;28;20037;-60
2021/11/21 01:44:36;;;;;;;9.35;2.53;;;9.30;99.90;;;;;;5031790;28;20393;-61
2021/11/21 01:47:05;;;;;;;8.43;2.30;;;9.30;99.90;;;;;;5035188;28;20041;-60
2021/11/21 01:49:31;;;;;;;11.05;2.65;;;9.20;99.90;;;;;;5030982;28;20075;-59
2021/11/21 01:51:56;;;;;;;8.20;2.33;;;9.20;99.90;;;;;;5034457;28;20422;-57
2021/11/21 01:54:22;;;;;;;6.93;1.85;;;9.20;99.90;;;;;;5039432;28;20025;-59
2021/11/21 01:56:48;;;;;;;12.45;2.38;;;9.10;99.90;;;;;;5032901;28;20045;-59
2021/11/21 01:59:15;;;;;;;7.18;2.03;;;9.10;99.90;;;;;;5031983;28;20091;-61
2021/11/21 02:01:41;;;;;;;12.13;2.10;;;9.00;99.90;;;;;;5053616;28;20033;-60
2021/11/21 02:04:06;;;;;;;17.25;2.55;;;9.00;99.90;;;;;;5051296;28;20043;-59
2021/11/21 02:06:32;;;;;;;10.35;2.38;;;9.00;99.90;;;;;;5053996;28;20360;-61
2021/11/21 02:08:58;;;;;;;7.57;2.10;;;8.90;99.90;;;;;;5059426;28;20017;-60
2021/11/21 02:11:25;;;;;;;11.98;2.42;;;8.90;99.90;;;;;;5055213;28;20037;-60
2021/11/21 02:13:52;;;;;;;14.15;2.60;;;8.90;99.90;;;;;;5050733;28;20025;-59
2021/11/21 02:16:21;;;;;;;6.90;2.03;;;9.00;99.90;;;;;;5052001;28;20055;-60
2021/11/21 02:18:47;;;;;;;11.75;3.08;;;8.90;99.90;;;;;;5053060;28;20041;-60
2021/11/21 02:21:14;;;;;;;14.05;3.15;;;8.80;99.90;;;;;;5051678;28;20382;-58
2021/11/21 02:23:40;;;;;;;10.68;2.28;;;8.80;99.90;;;;;;5058268;28;20509;-60
2021/11/21 02:26:07;;;;;;;10.70;2.70;;;8.70;99.90;;;;;;5057748;28;20031;-60
2021/11/21 02:28:34;;;;;;;9.70;2.45;;;8.70;99.90;;;;;;5051150;28;20025;-60
2021/11/21 02:30:59;;;;;;;11.10;2.45;;;8.60;99.90;;;;;;5050859;28;20041;-59
2021/11/21 02:33:25;;;;;;;9.13;2.55;;;8.70;99.90;;;;;;5050893;28;20029;-63
2021/11/21 02:35:57;;;;;;;9.50;2.38;;;8.60;99.90;;;;;;5056945;28;20028;-61
2021/11/21 02:38:26;;;;;;;14.18;2.33;;;8.60;99.90;;;;;;5051427;28;20029;-58
2021/11/21 02:40:54;;;;;;;9.32;2.50;;;8.60;99.90;;;;;;5054401;28;20029;-59
2021/11/21 02:43:21;;;;;;;9.23;2.30;;;8.50;99.90;;;;;;5054388;28;20502;-60
2021/11/21 02:45:48;;;;;;;11.50;2.58;;;8.40;99.90;;;;;;5054003;28;20072;-59
2021/11/21 02:48:16;;;;;;;13.55;2.75;;;8.40;99.90;;;;;;5057593;28;20498;-58
2021/11/21 02:50:42;;;;;;;9.68;2.20;;;8.30;99.90;;;;;;5056553;28;20036;-59
2021/11/21 02:53:08;;;;;;;12.00;2.70;;;8.30;99.90;;;;;;5062938;28;20033;-60
2021/11/21 02:55:34;;;;;;;12.80;2.90;;;8.10;99.90;;;;;;5052188;28;20078;-60
2021/11/21 02:58:02;;;;;;;16.75;3.40;;;8.00;99.90;;;;;;5057555;28;20436;-60
2021/11/21 03:00:28;;;;;;;12.38;2.92;;;8.10;99.90;;;;;;5035766;28;20026;-59
2021/11/21 03:02:54;;;;;;;11.93;2.90;;;8.00;99.90;;;;;;5030679;28;20167;-59
2021/11/21 03:05:20;;;;;;;13.25;3.10;;;7.90;99.90;;;;;;5037963;28;20029;-60
2021/11/21 03:07:48;;;;;;;14.57;3.20;;;7.90;99.90;;;;;;5036024;28;20107;-58
2021/11/21 03:10:18;;;;;;;14.77;2.80;;;7.90;99.90;;;;;;5032644;28;20045;-59
2021/11/21 03:12:50;;;;;;;8.88;2.70;;;7.80;99.90;;;;;;5030794;28;20656;-60
2021/11/21 03:15:16;;;;;;;11.63;2.75;;;7.80;99.90;;;;;;5043017;28;20063;-61
2021/11/21 03:17:43;;;;;;;16.30;3.75;;;7.70;99.90;;;;;;5030716;28;20036;-59
2021/11/21 03:20:16;;;;;;;12.18;2.95;;;7.70;99.90;;;;;;5029979;28;20021;-59
2021/11/21 03:22:42;;;;;;;14.73;3.00;;;7.60;99.90;;;;;;5031779;28;20125;-60
2021/11/21 03:25:10;;;;;;;10.25;2.30;;;7.60;99.90;;;;;;5039962;28;20042;-61
2021/11/21 03:27:36;;;;;;;13.65;2.80;;;7.50;99.90;;;;;;5038535;28;20025;-58
2021/11/21 03:30:05;;;;;;;10.32;2.40;;;7.40;99.90;;;;;;5030142;28;20383;-59
2021/11/21 03:32:30;;;;;;;12.38;2.65;;;7.30;99.90;;;;;;5035437;28;20029;-59
2021/11/21 03:34:56;;;;;;;18.25;2.42;;;7.30;99.90;;;;;;5030306;28;20624;-62
2021/11/21 03:37:22;;;;;;;12.88;2.60;;;7.20;99.90;;;;;;5031086;28;20033;-58
2021/11/21 03:39:49;;;;;;;10.38;2.85;;;7.20;99.90;;;;;;5037696;28;20033;-61
2021/11/21 03:42:16;;;;;;;15.02;2.70;;;7.20;99.90;;;;;;5031008;28;20029;-60
2021/11/21 03:44:42;;;;;;;9.05;2.78;;;7.10;99.90;;;;;;5030268;28;20531;-61
2021/11/21 03:47:07;;;;;;;13.60;3.20;;;7.00;99.90;;;;;;5034567;28;20113;-60
2021/11/21 03:49:33;;;;;;;14.60;3.20;;;7.00;99.90;;;;;;5034465;28;20029;-59
2021/11/21 03:51:59;;;;;;;19.17;3.40;;;7.00;99.90;;;;;;5037058;28;20395;-60
2021/11/21 03:54:25;;;;;;;16.10;3.42;;;7.00;99.90;;;;;;5047958;28;20029;-60
2021/11/21 03:56:51;;;;;;;16.08;4.18;;;7.00;99.90;;;;;;5051707;28;20037;-62
2021/11/21 03:59:18;;;;;;;14.57;3.83;;;6.90;99.90;;;;;;5052732;28;20041;-59
2021/11/21 04:01:43;;;;;;;10.38;3.13;;;6.90;99.90;;;;;;5048699;28;20033;-58
2021/11/21 04:04:10;;;;;;;12.63;3.25;;;6.90;99.90;;;;;;5052917;28;20455;-60
2021/11/21 04:06:36;;;;;;;14.80;3.63;;;6.90;99.90;;;;;;5049323;28;20029;-61
2021/11/21 04:09:01;;;;;;;14.63;3.08;;;6.90;99.90;;;;;;5051749;28;20437;-61
2021/11/21 04:11:29;;;;;;;15.65;3.88;;;6.80;99.90;;;;;;5052721;28;20052;-61
2021/11/21 04:13:55;;;;;;;14.07;3.10;;;6.90;99.90;;;;;;5052890;28;20040;-61
2021/11/21 04:16:21;;;;;;;16.75;3.15;;;6.90;99.90;;;;;;5052792;28;20429;-59
2021/11/21 04:18:46;;;;;;;15.40;2.83;;;6.80;99.90;;;;;;5050211;28;20037;-60
2021/11/21 04:21:12;;;;;;;14.95;3.22;;;6.80;99.90;;;;;;5052643;28;20029;-58
2021/11/21 04:23:38;;;;;;;17.58;2.97;;;6.90;99.90;;;;;;5053387;28;20546;-61
2021/11/21 04:26:04;;;;;;;9.60;2.58;;;6.80;99.90;;;;;;5052768;28;20429;-58
2021/11/21 04:28:30;;;;;;;12.48;2.88;;;6.80;99.90;;;;;;5050164;28;20816;-62
2021/11/21 04:30:56;;;;;;;12.60;2.30;;;6.80;99.90;;;;;;5043144;28;20038;-60
2021/11/21 04:33:23;;;;;;;13.82;2.58;;;6.70;99.90;;;;;;5046521;28;20029;-61
2021/11/21 04:35:49;;;;;;;14.60;2.60;;;6.70;99.90;;;;;;5052827;28;20032;-59
2021/11/21 04:38:16;;;;;;;13.65;3.10;;;6.70;99.90;;;;;;5049048;28;20032;-60
2021/11/21 04:40:43;;;;;;;15.20;2.90;;;6.70;99.90;;;;;;5049555;28;20510;-58
2021/11/21 04:43:08;;;;;;;13.60;2.85;;;6.60;99.90;;;;;;5047929;28;21662;-57
2021/11/21 04:45:34;;;;;;;16.98;2.83;;;6.60;99.90;;;;;;5038595;28;20091;-55
2021/11/21 04:48:00;;;;;;;10.93;2.60;;;6.50;99.90;;;;;;5034302;28;20021;-58
2021/11/21 04:50:26;;;;;;;15.80;3.05;;;6.60;99.90;;;;;;5036210;28;20383;-60
2021/11/21 04:52:51;;;;;;;13.40;2.75;;;6.60;99.90;;;;;;5048973;28;20120;-58
2021/11/21 04:55:17;;;;;;;10.02;2.33;;;6.60;99.90;;;;;;5048182;28;20049;-61
2021/11/21 04:57:43;;;;;;;16.70;2.65;;;6.60;99.90;;;;;;5052045;28;20032;-59
2021/11/21 05:00:16;;;;;;;11.48;2.75;;;6.60;99.90;;;;;;5064644;28;20061;-57
2021/11/21 05:02:46;;;;;;;24.25;3.05;;;6.50;99.90;;;;;;5068505;28;20500;-58
2021/11/21 05:05:12;;;;;;;18.15;3.17;;;6.50;99.90;;;;;;5071495;28;20043;-60
2021/11/21 05:07:38;;;;;;;15.23;3.25;;;6.40;99.90;;;;;;5072043;28;20479;-59
2021/11/21 05:10:05;;;;;;;11.60;2.72;;;6.50;99.90;;;;;;5064128;28;20039;-60
2021/11/21 05:12:31;;;;;;;16.60;2.97;;;6.40;99.90;;;;;;5059257;28;20041;-57
2021/11/21 05:14:59;;;;;;;14.95;2.70;;;6.40;99.90;;;;;;5071825;28;20029;-58
2021/11/21 05:17:26;;;;;;;15.90;3.15;;;6.40;99.90;;;;;;5071540;28;20028;-57
2021/11/21 05:19:52;;;;;;;14.88;3.03;;;6.30;99.90;;;;;;5070035;28;20028;-55
2021/11/21 05:22:18;;;;;;;16.73;2.53;;;6.30;99.90;;;;;;5060438;28;20119;-62
2021/11/21 05:24:44;;;;;;;21.58;2.95;;;6.30;99.90;;;;;;5070678;28;20572;-57
2021/11/21 05:27:10;;;;;;;9.20;2.20;;;6.30;99.90;;;;;;5069679;28;20143;-59
2021/11/21 05:29:35;;;;;;;14.65;2.30;;;6.30;99.90;;;;;;5071926;28;20037;-60
2021/11/21 05:32:02;;;;;;;10.77;2.40;;;6.20;99.90;;;;;;5070258;28;20028;-60
2021/11/21 05:34:28;;;;;;;16.10;2.95;;;6.20;99.90;;;;;;5058313;28;20021;-59
2021/11/21 05:36:54;;;;;;;10.30;2.30;;;6.10;99.90;;;;;;5064559;28;20099;-59
2021/11/21 05:39:20;;;;;;;14.98;2.58;;;6.10;99.90;;;;;;5064248;28;20429;-59
2021/11/21 05:41:45;;;;;;;16.70;2.85;;;6.20;99.90;;;;;;5069977;28;20060;-59
2021/11/21 05:44:11;;;;;;;13.68;2.03;;;6.10;99.90;;;;;;5071736;28;20068;-60
2021/11/21 05:46:37;;;;;;;19.30;2.47;;;6.10;99.90;;;;;;5070792;28;20078;-60
2021/11/21 05:49:03;;;;;;;12.73;2.08;;;6.10;99.90;;;;;;5071421;28;20037;-59
2021/11/21 05:51:29;;;;;;;14.25;2.65;;;6.00;99.90;;;;;;5069816;28;20044;-59
2021/11/21 05:53:55;;;;;;;10.70;2.65;;;6.00;99.90;;;;;;5071095;28;20065;-60
2021/11/21 05:56:20;;;;;;;14.40;2.80;;;5.90;99.90;;;;;;5062618;28;20031;-59
2021/11/21 05:58:49;;;;;;;13.38;2.53;;;5.90;99.90;;;;;;5062445;28;20051;-58
2021/11/21 06:01:15;;;;;;;15.75;2.70;;;6.00;99.90;;;;;;5042013;28;20425;-59
2021/11/21 06:03:41;;;;;;;15.18;2.50;;;5.90;99.90;;;;;;5045506;28;20044;-58
2021/11/21 06:06:08;;;;;;;14.00;2.47;;;5.90;99.90;;;;;;5049905;28;20433;-57
2021/11/21 06:08:34;;;;;;;15.02;2.40;;;5.80;99.90;;;;;;5046535;28;20028;-57
2021/11/21 06:10:59;;;;;;;9.65;2.28;;;5.70;99.90;;;;;;5049416;28;20080;-59
2021/11/21 06:13:27;;;;;;;12.88;2.33;;;5.70;99.90;;;;;;5042821;28;20076;-58
2021/11/21 06:15:53;;;;;;;10.50;2.47;;;5.70;99.90;;;;;;5045493;28;20025;-59
2021/11/21 06:18:19;;;;;;;13.00;2.38;;;5.60;99.90;;;;;;5051205;28;20079;-60
2021/11/21 06:20:45;;;;;;;10.70;2.58;;;5.70;99.90;;;;;;5046685;28;20037;-59
2021/11/21 06:23:11;;;;;;;14.00;2.75;;;5.60;99.90;;;;;;5051196;28;20021;-59
2021/11/21 06:25:38;;;;;;;16.33;2.30;;;5.60;99.90;;;;;;5049741;28;20146;-60
2021/11/21 06:28:04;;;;;;;9.90;2.45;;;5.60;99.90;;;;;;5044440;28;20467;-59
2021/11/21 06:30:30;;;;;;;11.50;2.90;;;5.60;99.90;;;;;;5049189;28;20048;-57
2021/11/21 06:32:56;;;;;;;14.55;2.90;;;5.60;99.90;;;;;;5051164;28;20033;-58
2021/11/21 06:35:22;;;;;;;10.85;2.08;;;5.60;99.90;;;;;;5049738;28;20483;-61
2021/11/21 06:37:48;;;;;;;13.60;2.50;;;5.50;99.90;;;;;;5050455;28;20164;-58
2021/11/21 06:40:15;;;;;;;13.73;2.30;;;5.50;99.90;;;;;;5048770;28;20107;-56
2021/11/21 06:42:42;;;;;;;17.98;3.22;;;5.50;99.90;;;;;;5047587;28;20028;-60
2021/11/21 06:45:09;;;;;;;8.05;1.88;;;5.50;99.90;;;;;;5050272;28;20025;-55
2021/11/21 06:47:35;;;;;;;15.80;2.33;;;5.40;99.90;;;;;;5046571;28;20112;-58
2021/11/21 06:50:02;;;;;;;10.52;2.33;;;5.40;99.90;;;;;;5046861;28;20017;-61
2021/11/21 06:52:31;;;;;;;11.13;2.28;;;5.40;99.90;;;;;;5042735;28;20024;-59
2021/11/21 06:54:57;;;;;;;12.70;2.45;;;5.40;99.90;;;;;;5050797;28;20037;-59
2021/11/21 06:57:23;;;;;;;10.82;2.33;;;5.40;99.90;;;;;;5046795;28;20021;-58
2021/11/21 06:59:49;;;;;;;11.10;2.10;;;5.40;99.90;;;;;;5050307;28;20053;-59
2021/11/21 07:02:15;;;;;;;7.82;1.90;;;5.30;99.90;;;;;;5049059;28;20029;-56
2021/11/21 07:04:40;;;;;;;9.02;1.98;;;5.30;99.90;;;;;;5050707;28;20021;-59
2021/11/21 07:07:08;;;;;;;9.52;2.40;;;5.40;99.90;;;;;;5048883;28;20433;-60
2021/11/21 07:09:34;;;;;;;9.57;2.22;;;5.30;99.90;;;;;;5050520;28;20100;-58
2021/11/21 07:12:00;;;;;;;9.98;1.95;;;5.30;99.90;;;;;;5037920;28;20052;-55
2021/11/21 07:14:25;;;;;;;13.77;2.13;;;5.30;99.90;;;;;;5038010;28;20044;-57
2021/11/21 07:16:51;;;;;;;7.55;1.85;;;5.30;99.90;;;;;;5043757;28;20474;-59
2021/11/21 07:19:17;;;;;;;9.82;2.05;;;5.30;99.90;;;;;;5048499;28;20040;-59
2021/11/21 07:21:44;;;;;;;11.00;2.10;;;5.30;99.90;;;;;;5053677;28;20068;-56
2021/11/21 07:24:10;;;;;;;14.15;2.60;;;5.30;99.90;;;;;;5053995;28;20033;-57
2021/11/21 07:26:36;;;;;;;10.43;2.30;;;5.20;99.90;;;;;;5045065;28;20056;-59
2021/11/21 07:29:04;;;;;;;8.73;1.73;;;5.20;99.90;;;;;;5048257;28;20114;-57
2021/11/21 07:31:30;;;;;;;8.82;1.80;;;5.20;99.90;;;;;;5047177;28;20060;-58
2021/11/21 07:33:56;;;;;;;8.02;2.00;;;5.20;99.90;;;;;;5054614;28;20499;-59
2021/11/21 07:36:22;;;;;;;14.90;2.40;;;5.20;99.90;;;;;;5052227;28;20414;-60
2021/11/21 07:38:47;;;;;;;14.00;2.03;;;5.20;99.90;;;;;;5054058;28;20041;-59
2021/11/21 07:41:14;;;;;;;16.17;2.40;;;5.20;99.90;;;;;;5052170;28;20033;-59
2021/11/21 07:43:40;;;;;;;11.85;2.10;;;5.20;99.90;;;;;;5054300;28;20060;-58
2021/11/21 07:46:07;;;;;;;11.18;2.20;;;5.10;99.90;;;;;;5045866;28;20087;-58
2021/11/21 07:48:33;;;;;;;9.95;2.53;;;5.10;99.90;;;;;;5052584;28;20016;-60
2021/11/21 07:51:00;;;;;;;9.43;1.80;;;5.10;99.90;;;;;;5047908;28;20518;-59
2021/11/21 07:53:26;;;;;;;9.55;2.10;;;5.20;99.90;;;;;;5053457;28;20040;-55
2021/11/21 07:55:54;;;;;;;10.13;1.95;;;5.10;99.90;;;;;;5053121;28;20033;-56
2021/11/21 07:58:20;;;;;;;10.52;2.00;;;5.10;99.90;;;;;;5052612;28;20045;-59
2021/11/21 08:00:47;;;;;;;12.23;2.05;;;5.20;99.90;;;;;;5047368;28;20036;-57
2021/11/21 08:03:12;;;;;;;11.82;2.00;;;5.20;99.90;;;;;;5044670;28;20087;-58
2021/11/21 08:05:39;;;;;;;11.10;2.25;;;5.20;99.90;;;;;;5046059;28;20038;-59
2021/11/21 08:08:06;;;;;;;7.20;1.70;;;5.10;99.90;;;;;;5052559;28;20021;-61
2021/11/21 08:10:33;;;;;;;10.13;2.10;;;5.10;99.90;;;;;;5052767;28;20056;-61
2021/11/21 08:12:59;;;;;;;8.73;1.95;;;5.10;99.90;;;;;;5044555;28;20104;-60
2021/11/21 08:15:24;;;;;;;10.82;2.08;;;5.10;99.90;;;;;;5053582;28;20111;-57
2021/11/21 08:17:50;;;;;;;12.50;2.17;;;5.20;99.90;;;;;;5049961;28;20075;-57
2021/11/21 08:20:16;;;;;;;11.57;2.03;;;5.20;99.90;;;;;;5052949;28;20127;-60
2021/11/21 08:22:42;;;;;;;13.13;1.83;;;5.20;99.90;;;;;;5052018;28;20044;-59
2021/11/21 08:25:09;;;;;;;9.77;1.85;;;5.20;99.90;;;;;;5051086;28;20387;-59
2021/11/21 08:27:36;;;;;;;7.82;1.77;;;5.20;99.90;;;;;;5052618;28;20029;-59
2021/11/21 08:30:04;;;;;;;8.27;1.90;;;5.20;99.90;;;;;;5043662;28;20502;-58
2021/11/21 08:32:31;;;;;;;9.07;2.00;;;5.20;99.90;;;;;;5052374;28;20087;-57
2021/11/21 08:34:57;;;;;;;10.40;1.95;;;5.30;99.90;;;;;;5052351;28;20399;-58
2021/11/21 08:37:23;;;;;;;8.77;1.73;;;5.40;99.90;;;;;;5052599;28;20044;-59
2021/11/21 08:39:49;;;;;;;7.05;2.20;;;5.50;99.90;;;;;;5043966;28;20475;-59
2021/11/21 08:42:15;;;;;;;8.05;2.20;;;5.70;99.90;;;;;;5042930;28;20029;-59
2021/11/21 08:44:41;;;;;;;9.68;2.10;;;5.80;99.90;;;;;;5041404;28;20056;-60
2021/11/21 08:47:07;;;;;;;7.35;2.03;;;6.00;99.90;;;;;;5033038;28;20033;-56
2021/11/21 08:49:32;;;;;;;11.63;1.77;;;6.20;99.90;;;;;;5036966;28;20048;-59
2021/11/21 08:51:58;;;;;;;5.40;1.70;;;6.30;99.90;;;;;;5033988;28;20543;-59
2021/11/21 08:54:24;;;;;;;5.80;1.60;;;6.50;99.90;;;;;;5043642;28;20498;-59
2021/11/21 08:56:50;;;;;;;6.45;1.50;;;6.60;99.90;;;;;;5034470;28;20075;-57
2021/11/21 08:59:16;;;;;;;9.32;1.98;;;6.60;99.90;;;;;;5035101;28;20061;-59
2021/11/21 09:01:42;;;;;;;8.07;1.58;;;6.60;99.90;;;;;;5042811;28;20050;-59
2021/11/21 09:04:10;;;;;;;11.25;2.25;;;6.60;99.90;;;;;;5045297;28;20078;-59
2021/11/21 09:06:36;;;;;;;10.93;1.98;;;6.60;99.90;;;;;;5037802;28;20901;-58
2021/11/21 09:09:03;;;;;;;9.88;2.00;;;6.50;99.90;;;;;;5046788;28;20151;-56
2021/11/21 09:11:29;;;;;;;5.32;1.60;;;6.50;99.90;;;;;;5051695;28;20115;-61
2021/11/21 09:13:55;;;;;;;8.00;1.55;;;6.50;99.90;;;;;;5041494;28;20116;-59
2021/11/21 09:16:21;;;;;;;8.82;1.50;;;6.40;99.90;;;;;;5047833;28;20745;-61
2021/11/21 09:18:47;;;;;;;5.43;2.13;;;6.40;99.90;;;;;;5050118;28;20107;-59
2021/11/21 09:21:13;;;;;;;9.95;2.13;;;6.40;99.90;;;;;;5049558;28;20037;-60
2021/11/21 09:23:39;;;;;;;5.65;1.38;;;6.40;99.90;;;;;;5040718;28;20386;-59
2021/11/21 09:26:06;;;;;;;7.93;1.45;;;6.40;99.90;;;;;;5048680;28;20033;-56
2021/11/21 09:28:32;;;;;;;7.35;1.60;;;6.30;99.90;;;;;;5035886;28;20782;-63
2021/11/21 09:30:57;;;;;;;11.82;1.52;;;6.40;99.90;;;;;;5044956;28;20475;-60
2021/11/21 09:33:24;;;;;;;7.28;1.77;;;6.30;99.90;;;;;;5039795;28;20034;-57
2021/11/21 09:35:50;;;;;;;9.82;1.83;;;6.40;99.90;;;;;;5041229;28;20055;-57
2021/11/21 09:38:19;;;;;;;11.38;2.00;;;6.40;99.90;;;;;;5040079;28;20032;-59
2021/11/21 09:40:45;;;;;;;11.95;2.70;;;6.40;99.90;;;;;;5044574;28;20033;-59
2021/11/21 09:43:10;;;;;;;5.80;1.58;;;6.40;99.90;;;;;;5048955;28;20064;-57
2021/11/21 09:45:36;;;;;;;8.73;1.95;;;6.40;99.90;;;;;;5040917;28;20130;-58
2021/11/21 09:48:05;;;;;;;7.78;1.90;;;6.40;99.90;;;;;;5044903;28;20448;-60
2021/11/21 09:50:33;;;;;;;7.18;2.00;;;6.40;99.90;;;;;;5039975;28;20033;-60
2021/11/21 09:52:59;;;;;;;12.57;1.88;;;6.40;99.90;;;;;;5043132;28;20065;-57
2021/11/21 09:55:25;;;;;;;5.93;1.80;;;6.50;99.90;;;;;;5050951;28;20467;-60
2021/11/21 09:57:53;;;;;;;9.65;2.42;;;6.60;99.90;;;;;;5045048;28;20044;-59
2021/11/21 10:00:22;;;;;;;6.57;1.58;;;6.60;99.90;;;;;;5052981;28;20043;-61
2021/11/21 10:03:05;;;;;;;7.95;1.98;;;6.70;99.90;;;;;;5051291;28;20021;-62
2021/11/21 10:05:35;;;;;;;10.27;2.30;;;6.70;99.90;;;;;;5065685;28;20036;-61
2021/11/21 10:08:05;;;;;;;7.28;2.13;;;6.80;99.90;;;;;;5068415;28;20029;-62
2021/11/21 10:10:50;;;;;;;5.68;1.50;;;6.80;99.90;;;;;;5070727;28;20040;-61
2021/11/21 10:13:21;;;;;;;14.35;2.55;;;6.90;99.90;;;;;;5058396;28;20097;-56
2021/11/21 10:15:47;;;;;;;9.65;2.08;;;6.90;99.90;;;;;;5070717;28;20035;-56
2021/11/21 10:18:13;;;;;;;10.93;2.85;;;6.90;99.90;;;;;;5059823;28;20387;-60
2021/11/21 10:20:40;;;;;;;13.40;2.17;;;7.00;99.90;;;;;;5067198;28;20020;-61
2021/11/21 10:23:08;;;;;;;15.32;1.92;;;7.00;99.90;;;;;;5059390;28;20387;-61
2021/11/21 10:25:34;;;;;;;6.68;1.98;;;7.10;99.90;;;;;;5060450;28;20074;-58
2021/11/21 10:28:15;;;;;;;18.05;2.78;;;7.10;99.90;;;;;;5058985;28;20024;-56
2021/11/21 10:31:06;;;;;;;12.10;2.17;;;7.20;99.90;;;;;;5055753;28;20075;-59
2021/11/21 10:33:42;;;;;;;8.98;1.70;;;7.20;99.90;;;;;;5055271;28;20103;-57
2021/11/21 10:36:25;;;;;;;14.15;2.15;;;7.20;99.90;;;;;;5058987;28;20025;-63
2021/11/21 10:38:56;;;;;;;8.45;1.95;;;7.20;99.90;;;;;;5058089;28;20037;-60
2021/11/21 10:41:28;;;;;;;13.95;2.42;;;7.20;99.90;;;;;;5059908;28;20480;-59
2021/11/21 10:44:00;;;;;;;9.60;1.70;;;7.10;99.90;;;;;;5066604;28;20486;-58
2021/11/21 10:46:45;;;;;;;10.15;2.05;;;7.10;99.90;;;;;;5061628;28;20078;-58
2021/11/21 10:49:33;;;;;;;13.37;2.13;;;7.10;99.90;;;;;;5056664;28;20060;-60
2021/11/21 10:52:23;;;;;;;11.20;2.10;;;7.20;99.90;;;;;;5061384;28;20375;-62
2021/11/21 10:54:56;;;;;;;8.77;1.77;;;7.20;99.90;;;;;;5050009;28;20115;-59
2021/11/21 10:57:23;;;;;;;15.65;2.88;;;7.20;99.90;;;;;;5054526;28;20032;-57
2021/11/21 10:59:55;;;;;;;12.40;2.38;;;7.30;99.90;;;;;;5049928;28;20060;-61
2021/11/21 11:02:52;;;;;;;25.10;2.58;;;7.40;99.90;;;;;;5044345;28;20068;-62
2021/11/21 11:05:24;;;;;;;7.03;1.80;;;7.50;99.90;;;;;;5034888;28;20131;-59
2021/11/21 11:07:56;;;;;;;17.60;2.50;;;7.50;99.90;;;;;;5042924;28;20121;-59
2021/11/21 11:10:30;;;;;;;12.80;2.28;;;7.60;99.90;;;;;;5046084;28;20025;-59
2021/11/21 11:12:58;;;;;;;18.70;2.40;;;7.70;99.90;;;;;;5048712;28;20060;-59
2021/11/21 11:15:25;;;;;;;9.27;1.98;;;7.70;99.90;;;;;;5048491;28;20049;-58
2021/11/21 11:17:52;;;;;;;9.35;2.10;;;7.70;99.90;;;;;;5028490;28;20466;-60
2021/11/21 11:20:19;;;;;;;11.15;2.40;;;7.80;99.90;;;;;;5047553;28;20040;-60
2021/11/21 11:22:47;;;;;;;22.55;3.90;;;7.80;99.90;;;;;;5027258;28;20033;-58
2021/11/21 11:25:14;;;;;;;17.23;3.88;;;7.90;99.90;;;;;;5040391;28;20033;-61
2021/11/21 11:28:13;;;;;;;18.63;5.60;;;8.00;99.90;;;;;;5047999;28;20041;-58
2021/11/21 11:30:40;;;;;;;11.40;2.53;;;8.10;99.90;;;;;;5045252;28;20029;-59
2021/11/21 11:33:21;;;;;;;22.77;3.20;;;8.00;99.90;;;;;;5046084;28;20032;-59
2021/11/21 11:35:53;;;;;;;13.95;2.78;;;8.00;99.90;;;;;;5039614;28;20036;-59
2021/11/21 11:38:23;;;;;;;10.20;2.42;;;7.90;99.90;;;;;;5042489;28;20117;-58
2021/11/21 11:40:56;;;;;;;8.15;2.13;;;7.90;99.90;;;;;;5043875;28;20041;-59
2021/11/21 11:43:27;;;;;;;13.82;3.10;;;8.00;99.90;;;;;;5049034;28;20025;-59
2021/11/21 11:45:56;;;;;;;15.27;2.72;;;7.90;99.90;;;;;;5049830;28;20029;-57
2021/11/21 11:48:47;;;;;;;13.73;3.97;;;8.00;99.90;;;;;;5048595;28;20017;-60
2021/11/21 11:51:22;;;;;;;16.33;3.67;;;8.10;99.90;;;;;;5046638;28;20079;-59
2021/11/21 11:54:15;;;;;;;10.23;3.05;;;8.10;99.90;;;;;;5049539;28;20104;-60
2021/11/21 11:56:41;;;;;;;10.75;2.50;;;8.10;99.90;;;;;;5045253;28;20041;-60
2021/11/21 11:59:22;;;;;;;9.63;2.60;;;8.10;99.90;;;;;;5047006;28;20505;-57
2021/11/21 12:01:52;;;;;;;19.33;2.92;;;8.00;99.90;;;;;;5063451;28;20036;-60
2021/11/21 12:04:24;;;;;;;61.60;21.75;;;8.00;99.90;;;;;;5068461;28;20036;-57
2021/11/21 12:06:57;;;;;;;12.75;3.22;;;8.00;99.90;;;;;;5072355;28;20036;-61
2021/11/21 12:09:31;;;;;;;18.52;3.38;;;8.10;99.90;;;;;;5069758;28;20115;-59
2021/11/21 12:12:05;;;;;;;9.95;2.33;;;8.10;99.90;;;;;;5068850;28;20036;-56
2021/11/21 12:14:46;;;;;;;13.68;2.60;;;8.10;99.90;;;;;;5072505;28;20032;-60
2021/11/21 12:17:29;;;;;;;12.75;2.60;;;8.10;99.90;;;;;;5072575;28;20025;-60
2021/11/21 12:19:57;;;;;;;18.80;3.50;;;8.10;99.90;;;;;;5071660;28;20059;-60
2021/11/21 12:22:30;;;;;;;16.35;2.33;;;8.10;99.90;;;;;;5073457;28;20028;-61
2021/11/21 12:25:08;;;;;;;13.55;2.90;;;8.20;99.90;;;;;;5057970;28;20028;-59
2021/11/21 12:27:37;;;;;;;20.10;2.88;;;8.20;99.90;;;;;;5072812;28;20040;-60
2021/11/21 12:30:28;;;;;;;22.60;3.67;;;8.20;99.90;;;;;;5069804;28;20094;-59
2021/11/21 12:32:59;;;;;;;11.40;2.90;;;8.20;99.90;;;;;;5072134;28;20124;-60
2021/11/21 12:35:27;;;;;;;13.88;2.42;;;8.20;99.90;;;;;;5072919;28;20033;-59
2021/11/21 12:37:55;;;;;;;17.40;3.33;;;8.20;99.90;;;;;;5072277;28;20032;-60
2021/11/21 12:40:24;;;;;;;15.20;3.17;;;8.20;99.90;;;;;;5063478;28;20040;-57
2021/11/21 12:42:56;;;;;;;16.08;2.65;;;8.10;99.90;;;;;;5051760;28;20033;-59
2021/11/21 12:45:25;;;;;;;15.68;2.67;;;8.10;99.90;;;;;;5054695;28;20029;-58
2021/11/21 12:47:54;;;;;;;17.42;3.22;;;8.10;99.90;;;;;;5054290;28;20063;-59
2021/11/21 12:50:30;;;;;;;13.30;2.35;;;8.20;99.90;;;;;;5055361;28;20060;-56
2021/11/21 12:52:58;;;;;;;12.02;2.75;;;8.30;99.90;;;;;;5053038;28;20040;-59
2021/11/21 12:55:26;;;;;;;17.65;2.50;;;8.10;99.90;;;;;;5062145;28;20029;-59